Nunda, New York
Current Conditions -  °F | °C
As of 4:54 AM on Thursday 23 Oct 2014 (Local Time) from KDSV Reporting Station
Overcast Overcast  
Wind Chill: 40°   Ceiling: 2500
Heat Index: 45°   Visibility: 10mi
Dew Point: 40°   Wind: 9mph
Humidity: 82%   Direction: 340°NNW
Pressure: 30.08"   Gusts: NA
Location:  42.58°N, 77.94°W
Report Text: KDSV 230854Z AUTO 34008KT 10SM OVC025 07/04 A3008 RMK AO2 SLP199 T00720044 58007
Loading
Personal Weather Stations






























Interactive Weather Map
Tropical Storm Tracking
New forecast layout! Learn more

10-Day Weather Forecast

Advertisements
Track Severe Weather on mobile